NATURA VA

 METAR AND TAF INFORMATION
METAR FOR LECH
ADDS - METARS form results

(0409 UTC 16 January 2019)
Data provider http://aviationweather.gov/metar/data/
 
METAR text: LECH 160400Z AUTO 16003KT 2300 BR NSC 04/04 Q1019
Conditions at: LECH (CASTELLON , ES) observed 0400 UTC 16 January 2019
Temperature: 4.0°C (39°F)
Dewpoint: 4.0°C (39°F) [RH = 100%]
Pressure (altimeter): 30.09 inches Hg (1019.0 mb)
Winds: from the SSE (160 degrees) at 3 MPH (3 knots; 1.5 m/s)
Visibility: 1.43 miles (2.30 km)
Ceiling: at least 12,000 feet AGL
Clouds: sky clear below 12,000 feet AGL
Weather: BR  (mist)

METAR text: LECH 160330Z AUTO 18004KT 2000 BR NSC 04/04 Q1019
Conditions at: LECH (CASTELLON , ES) observed 0330 UTC 16 January 2019
Temperature: 4.0°C (39°F)
Dewpoint: 4.0°C (39°F) [RH = 100%]
Pressure (altimeter): 30.09 inches Hg (1019.0 mb)
Winds: from the S (180 degrees) at 5 MPH (4 knots; 2.1 m/s)
Visibility: 1.24 miles (2.00 km)
Ceiling: at least 12,000 feet AGL
Clouds: sky clear below 12,000 feet AGL
Weather: BR  (mist)

 AIRPORT MAP

 RUNWAY INFORMATION

 AIRPORT FREQUENCIES
Type GND Name GND Frequency 121.82 MHZ
Type TWR Name TWR Frequency 120.67 MHZ
Type APP Name APP Frequency 120.1 MHZ

 AIRPORT NEAR NAVIGATION AIDS



Powered by Virtual Airlines Manager [v2.6.2]